sensor_id;sensor_type;location;lat;lon;timestamp;temperature;humidity
53294;DHT22;39181;53.440;5.644;2022-11-18T00:01:19;6.90;99.90
53294;DHT22;39181;53.440;5.644;2022-11-18T00:03:45;6.80;99.90
53294;DHT22;39181;53.440;5.644;2022-11-18T00:06:14;6.80;99.90
53294;DHT22;39181;53.440;5.644;2022-11-18T00:08:40;6.90;99.90
53294;DHT22;39181;53.440;5.644;2022-11-18T00:11:07;6.80;99.90
53294;DHT22;39181;53.440;5.644;2022-11-18T00:13:33;6.80;99.90
53294;DHT22;39181;53.440;5.644;2022-11-18T00:16:17;6.80;99.90
53294;DHT22;39181;53.440;5.644;2022-11-18T00:18:43;6.80;99.90
53294;DHT22;39181;53.440;5.644;2022-11-18T00:21:10;6.80;99.90
53294;DHT22;39181;53.440;5.644;2022-11-18T00:23:36;6.70;99.90
53294;DHT22;39181;53.440;5.644;2022-11-18T00:26:08;6.70;99.90
53294;DHT22;39181;53.440;5.644;2022-11-18T00:28:34;6.60;99.90
53294;DHT22;39181;53.440;5.644;2022-11-18T00:31:04;6.60;99.90
53294;DHT22;39181;53.440;5.644;2022-11-18T00:33:30;6.70;99.90
53294;DHT22;39181;53.440;5.644;2022-11-18T00:35:57;6.60;99.90
53294;DHT22;39181;53.440;5.644;2022-11-18T00:38:23;6.60;99.90
53294;DHT22;39181;53.440;5.644;2022-11-18T00:43:32;6.50;99.90
53294;DHT22;39181;53.440;5.644;2022-11-18T00:45:58;6.60;99.90
53294;DHT22;39181;53.440;5.644;2022-11-18T00:48:24;6.60;99.90
53294;DHT22;39181;53.440;5.644;2022-11-18T00:50:52;6.50;99.90
53294;DHT22;39181;53.440;5.644;2022-11-18T00:53:18;6.50;99.90
53294;DHT22;39181;53.440;5.644;2022-11-18T00:55:44;6.60;99.90
53294;DHT22;39181;53.440;5.644;2022-11-18T00:58:10;6.60;99.90
53294;DHT22;39181;53.440;5.644;2022-11-18T01:00:43;6.60;99.90
53294;DHT22;39181;53.440;5.644;2022-11-18T01:03:10;6.60;99.90
53294;DHT22;39181;53.440;5.644;2022-11-18T01:05:36;6.60;99.90
53294;DHT22;39181;53.440;5.644;2022-11-18T01:08:03;6.60;99.90
53294;DHT22;39181;53.440;5.644;2022-11-18T01:10:29;6.60;99.90
53294;DHT22;39181;53.440;5.644;2022-11-18T01:12:54;6.60;99.90
53294;DHT22;39181;53.440;5.644;2022-11-18T01:15:40;6.60;99.90
53294;DHT22;39181;53.440;5.644;2022-11-18T01:18:06;6.70;99.90
53294;DHT22;39181;53.440;5.644;2022-11-18T01:20:33;6.70;99.90
53294;DHT22;39181;53.440;5.644;2022-11-18T01:22:59;6.70;99.90
53294;DHT22;39181;53.440;5.644;2022-11-18T01:25:25;6.70;99.90
53294;DHT22;39181;53.440;5.644;2022-11-18T01:27:51;6.70;99.90
53294;DHT22;39181;53.440;5.644;2022-11-18T01:30:17;6.70;99.90
53294;DHT22;39181;53.440;5.644;2022-11-18T01:32:43;6.80;99.90
53294;DHT22;39181;53.440;5.644;2022-11-18T01:35:10;6.70;99.90
53294;DHT22;39181;53.440;5.644;2022-11-18T01:37:36;6.80;99.90
53294;DHT22;39181;53.440;5.644;2022-11-18T01:40:06;6.90;99.90
53294;DHT22;39181;53.440;5.644;2022-11-18T01:42:33;6.90;99.90
53294;DHT22;39181;53.440;5.644;2022-11-18T01:45:05;6.90;99.90
53294;DHT22;39181;53.440;5.644;2022-11-18T01:47:41;7.00;99.90
53294;DHT22;39181;53.440;5.644;2022-11-18T01:50:09;7.10;99.90
53294;DHT22;39181;53.440;5.644;2022-11-18T01:52:35;7.10;99.90
53294;DHT22;39181;53.440;5.644;2022-11-18T01:55:06;7.00;99.90
53294;DHT22;39181;53.440;5.644;2022-11-18T01:57:35;7.00;99.90
53294;DHT22;39181;53.440;5.644;2022-11-18T02:00:02;7.10;99.90
53294;DHT22;39181;53.440;5.644;2022-11-18T02:02:34;7.10;99.90
53294;DHT22;39181;53.440;5.644;2022-11-18T02:05:02;7.10;99.90
53294;DHT22;39181;53.440;5.644;2022-11-18T02:07:29;7.10;99.90
53294;DHT22;39181;53.440;5.644;2022-11-18T02:09:57;7.10;99.90
53294;DHT22;39181;53.440;5.644;2022-11-18T02:12:24;7.10;99.90
53294;DHT22;39181;53.440;5.644;2022-11-18T02:14:49;7.10;99.90
53294;DHT22;39181;53.440;5.644;2022-11-18T02:22:52;7.10;99.90
53294;DHT22;39181;53.440;5.644;2022-11-18T02:28:57;7.10;99.90
53294;DHT22;39181;53.440;5.644;2022-11-18T02:37:21;7.10;99.90
53294;DHT22;39181;53.440;5.644;2022-11-18T02:39:58;7.10;99.90
53294;DHT22;39181;53.440;5.644;2022-11-18T02:42:26;7.10;99.90
53294;DHT22;39181;53.440;5.644;2022-11-18T02:44:58;7.10;99.90
53294;DHT22;39181;53.440;5.644;2022-11-18T02:47:27;7.10;99.90
53294;DHT22;39181;53.440;5.644;2022-11-18T02:49:57;7.10;99.90
53294;DHT22;39181;53.440;5.644;2022-11-18T02:52:25;7.10;99.90
53294;DHT22;39181;53.440;5.644;2022-11-18T02:54:52;7.10;99.90
53294;DHT22;39181;53.440;5.644;2022-11-18T02:57:20;7.00;99.90
53294;DHT22;39181;53.440;5.644;2022-11-18T02:59:46;7.10;99.90
53294;DHT22;39181;53.440;5.644;2022-11-18T03:02:16;7.10;99.90
53294;DHT22;39181;53.440;5.644;2022-11-18T03:04:44;7.00;99.90
53294;DHT22;39181;53.440;5.644;2022-11-18T03:07:17;7.00;99.90
53294;DHT22;39181;53.440;5.644;2022-11-18T03:09:47;7.00;99.90
53294;DHT22;39181;53.440;5.644;2022-11-18T03:20:37;7.00;99.90
53294;DHT22;39181;53.440;5.644;2022-11-18T03:23:26;7.00;99.90
53294;DHT22;39181;53.440;5.644;2022-11-18T03:26:06;7.00;99.90
53294;DHT22;39181;53.440;5.644;2022-11-18T03:28:45;7.10;99.90
53294;DHT22;39181;53.440;5.644;2022-11-18T03:31:26;7.00;99.90
53294;DHT22;39181;53.440;5.644;2022-11-18T03:34:00;7.00;99.90
53294;DHT22;39181;53.440;5.644;2022-11-18T03:36:36;7.00;99.90
53294;DHT22;39181;53.440;5.644;2022-11-18T03:39:05;7.00;99.90
53294;DHT22;39181;53.440;5.644;2022-11-18T03:41:38;7.10;99.90
53294;DHT22;39181;53.440;5.644;2022-11-18T03:44:08;7.00;99.90
53294;DHT22;39181;53.440;5.644;2022-11-18T03:46:41;7.00;99.90
53294;DHT22;39181;53.440;5.644;2022-11-18T03:49:12;7.00;99.90
53294;DHT22;39181;53.440;5.644;2022-11-18T03:51:50;7.00;99.90
53294;DHT22;39181;53.440;5.644;2022-11-18T03:54:21;7.00;99.90
53294;DHT22;39181;53.440;5.644;2022-11-18T03:56:55;7.00;99.90
53294;DHT22;39181;53.440;5.644;2022-11-18T03:59:36;7.00;99.90
53294;DHT22;39181;53.440;5.644;2022-11-18T04:02:09;7.00;99.90
53294;DHT22;39181;53.440;5.644;2022-11-18T04:04:35;7.00;99.90
53294;DHT22;39181;53.440;5.644;2022-11-18T04:09:52;6.90;99.90
53294;DHT22;39181;53.440;5.644;2022-11-18T04:12:20;6.90;99.90
53294;DHT22;39181;53.440;5.644;2022-11-18T04:14:48;6.90;99.90
53294;DHT22;39181;53.440;5.644;2022-11-18T04:17:19;6.90;99.90
53294;DHT22;39181;53.440;5.644;2022-11-18T04:19:45;6.90;99.90
53294;DHT22;39181;53.440;5.644;2022-11-18T04:22:11;6.90;99.90
53294;DHT22;39181;53.440;5.644;2022-11-18T04:24:37;6.80;99.90
53294;DHT22;39181;53.440;5.644;2022-11-18T04:27:03;6.90;99.90
53294;DHT22;39181;53.440;5.644;2022-11-18T04:29:30;6.90;99.90
53294;DHT22;39181;53.440;5.644;2022-11-18T04:31:56;6.90;99.90
53294;DHT22;39181;53.440;5.644;2022-11-18T04:34:21;6.80;99.90
53294;DHT22;39181;53.440;5.644;2022-11-18T04:36:47;6.90;99.90
53294;DHT22;39181;53.440;5.644;2022-11-18T04:39:12;6.80;99.90
53294;DHT22;39181;53.440;5.644;2022-11-18T04:41:38;6.80;99.90
53294;DHT22;39181;53.440;5.644;2022-11-18T04:44:27;6.80;99.90
53294;DHT22;39181;53.440;5.644;2022-11-18T04:46:54;6.80;99.90
53294;DHT22;39181;53.440;5.644;2022-11-18T04:49:21;6.80;99.90
53294;DHT22;39181;53.440;5.644;2022-11-18T04:51:47;6.70;99.90
53294;DHT22;39181;53.440;5.644;2022-11-18T04:54:13;6.70;99.90
53294;DHT22;39181;53.440;5.644;2022-11-18T04:56:40;6.80;99.90
53294;DHT22;39181;53.440;5.644;2022-11-18T04:59:06;6.70;99.90
53294;DHT22;39181;53.440;5.644;2022-11-18T05:01:32;6.80;99.90
53294;DHT22;39181;53.440;5.644;2022-11-18T05:04:03;6.60;99.90
53294;DHT22;39181;53.440;5.644;2022-11-18T05:06:29;6.70;99.90
53294;DHT22;39181;53.440;5.644;2022-11-18T05:08:59;6.60;99.90
53294;DHT22;39181;53.440;5.644;2022-11-18T05:11:26;6.60;99.90
53294;DHT22;39181;53.440;5.644;2022-11-18T05:14:10;6.50;99.90
53294;DHT22;39181;53.440;5.644;2022-11-18T05:16:36;6.60;99.90
53294;DHT22;39181;53.440;5.644;2022-11-18T05:19:04;6.60;99.90
53294;DHT22;39181;53.440;5.644;2022-11-18T05:21:29;6.50;99.90
53294;DHT22;39181;53.440;5.644;2022-11-18T05:23:55;6.60;99.90
53294;DHT22;39181;53.440;5.644;2022-11-18T05:26:21;6.50;99.90
53294;DHT22;39181;53.440;5.644;2022-11-18T05:28:46;6.60;99.90
53294;DHT22;39181;53.440;5.644;2022-11-18T05:31:16;6.40;99.90
53294;DHT22;39181;53.440;5.644;2022-11-18T05:33:42;6.50;99.90
53294;DHT22;39181;53.440;5.644;2022-11-18T05:36:11;6.50;99.90
53294;DHT22;39181;53.440;5.644;2022-11-18T05:38:37;6.50;99.90
53294;DHT22;39181;53.440;5.644;2022-11-18T05:41:03;6.50;99.90
53294;DHT22;39181;53.440;5.644;2022-11-18T05:43:30;6.50;99.90
53294;DHT22;39181;53.440;5.644;2022-11-18T05:45:56;6.50;99.90
53294;DHT22;39181;53.440;5.644;2022-11-18T05:48:22;6.40;99.90
53294;DHT22;39181;53.440;5.644;2022-11-18T05:50:51;6.50;99.90
53294;DHT22;39181;53.440;5.644;2022-11-18T05:53:18;6.50;99.90
53294;DHT22;39181;53.440;5.644;2022-11-18T05:55:57;6.50;99.90
53294;DHT22;39181;53.440;5.644;2022-11-18T05:58:28;6.40;99.90
53294;DHT22;39181;53.440;5.644;2022-11-18T06:00:55;6.50;99.90
53294;DHT22;39181;53.440;5.644;2022-11-18T06:03:27;6.50;99.90
53294;DHT22;39181;53.440;5.644;2022-11-18T06:05:54;6.40;99.90
53294;DHT22;39181;53.440;5.644;2022-11-18T06:08:21;6.40;99.90
53294;DHT22;39181;53.440;5.644;2022-11-18T06:10:48;6.50;99.90
53294;DHT22;39181;53.440;5.644;2022-11-18T06:13:18;6.40;99.90
53294;DHT22;39181;53.440;5.644;2022-11-18T06:15:45;6.40;99.90
53294;DHT22;39181;53.440;5.644;2022-11-18T06:18:18;6.40;99.90
53294;DHT22;39181;53.440;5.644;2022-11-18T06:20:46;6.40;99.90
53294;DHT22;39181;53.440;5.644;2022-11-18T06:23:12;6.40;99.90
53294;DHT22;39181;53.440;5.644;2022-11-18T06:25:39;6.40;99.90
53294;DHT22;39181;53.440;5.644;2022-11-18T06:28:05;6.40;99.90
53294;DHT22;39181;53.440;5.644;2022-11-18T06:30:30;6.50;99.90
53294;DHT22;39181;53.440;5.644;2022-11-18T06:32:56;6.40;99.90
53294;DHT22;39181;53.440;5.644;2022-11-18T06:35:22;6.40;99.90
53294;DHT22;39181;53.440;5.644;2022-11-18T06:37:47;6.40;99.90
53294;DHT22;39181;53.440;5.644;2022-11-18T06:40:13;6.30;99.90
53294;DHT22;39181;53.440;5.644;2022-11-18T06:42:39;6.30;99.90
53294;DHT22;39181;53.440;5.644;2022-11-18T06:45:23;6.40;99.90
53294;DHT22;39181;53.440;5.644;2022-11-18T06:47:48;6.40;99.90
53294;DHT22;39181;53.440;5.644;2022-11-18T06:50:14;6.30;99.90
53294;DHT22;39181;53.440;5.644;2022-11-18T06:52:40;6.30;99.90
53294;DHT22;39181;53.440;5.644;2022-11-18T06:55:06;6.40;99.90
53294;DHT22;39181;53.440;5.644;2022-11-18T06:57:33;6.30;99.90
53294;DHT22;39181;53.440;5.644;2022-11-18T06:59:58;6.40;99.90
53294;DHT22;39181;53.440;5.644;2022-11-18T07:02:24;6.40;99.90
53294;DHT22;39181;53.440;5.644;2022-11-18T07:04:49;6.30;99.90
53294;DHT22;39181;53.440;5.644;2022-11-18T07:07:15;6.30;99.90
53294;DHT22;39181;53.440;5.644;2022-11-18T07:09:40;6.40;99.90
53294;DHT22;39181;53.440;5.644;2022-11-18T07:12:06;6.30;99.90
53294;DHT22;39181;53.440;5.644;2022-11-18T07:14:32;6.30;99.90
53294;DHT22;39181;53.440;5.644;2022-11-18T07:16:57;6.20;99.90
53294;DHT22;39181;53.440;5.644;2022-11-18T07:19:23;6.30;99.90
53294;DHT22;39181;53.440;5.644;2022-11-18T07:21:48;6.30;99.90
53294;DHT22;39181;53.440;5.644;2022-11-18T07:24:15;6.30;99.90
53294;DHT22;39181;53.440;5.644;2022-11-18T07:26:41;6.30;99.90
53294;DHT22;39181;53.440;5.644;2022-11-18T07:29:07;6.30;99.90
53294;DHT22;39181;53.440;5.644;2022-11-18T07:31:33;6.30;99.90
53294;DHT22;39181;53.440;5.644;2022-11-18T07:34:02;6.30;99.90
53294;DHT22;39181;53.440;5.644;2022-11-18T07:36:28;6.30;99.90
53294;DHT22;39181;53.440;5.644;2022-11-18T07:38:54;6.30;99.90
53294;DHT22;39181;53.440;5.644;2022-11-18T07:41:22;6.30;99.90
53294;DHT22;39181;53.440;5.644;2022-11-18T07:43:50;6.20;99.90
53294;DHT22;39181;53.440;5.644;2022-11-18T07:46:32;6.20;99.90
53294;DHT22;39181;53.440;5.644;2022-11-18T07:48:59;6.20;99.90
53294;DHT22;39181;53.440;5.644;2022-11-18T07:51:27;6.20;99.90
53294;DHT22;39181;53.440;5.644;2022-11-18T07:53:53;6.20;99.90
53294;DHT22;39181;53.440;5.644;2022-11-18T07:56:19;6.20;99.90
53294;DHT22;39181;53.440;5.644;2022-11-18T07:58:45;6.20;99.90
53294;DHT22;39181;53.440;5.644;2022-11-18T08:01:16;6.30;99.90
53294;DHT22;39181;53.440;5.644;2022-11-18T08:03:42;6.20;99.90
53294;DHT22;39181;53.440;5.644;2022-11-18T08:06:10;6.30;99.90
53294;DHT22;39181;53.440;5.644;2022-11-18T08:08:36;6.20;99.90
53294;DHT22;39181;53.440;5.644;2022-11-18T08:11:04;6.20;99.90
53294;DHT22;39181;53.440;5.644;2022-11-18T08:13:31;6.20;99.90
53294;DHT22;39181;53.440;5.644;2022-11-18T08:15:57;6.20;99.90
53294;DHT22;39181;53.440;5.644;2022-11-18T08:18:23;6.20;99.90
53294;DHT22;39181;53.440;5.644;2022-11-18T08:20:49;6.20;99.90
53294;DHT22;39181;53.440;5.644;2022-11-18T08:23:16;6.20;99.90
53294;DHT22;39181;53.440;5.644;2022-11-18T08:25:42;6.20;99.90
53294;DHT22;39181;53.440;5.644;2022-11-18T08:28:09;6.20;99.90
53294;DHT22;39181;53.440;5.644;2022-11-18T08:30:35;6.20;99.90
53294;DHT22;39181;53.440;5.644;2022-11-18T08:33:01;6.10;99.90
53294;DHT22;39181;53.440;5.644;2022-11-18T08:35:28;6.20;99.90
53294;DHT22;39181;53.440;5.644;2022-11-18T08:37:53;6.30;99.90
53294;DHT22;39181;53.440;5.644;2022-11-18T08:40:19;6.30;99.90
53294;DHT22;39181;53.440;5.644;2022-11-18T08:42:45;6.30;99.90
53294;DHT22;39181;53.440;5.644;2022-11-18T08:45:11;6.20;99.90
53294;DHT22;39181;53.440;5.644;2022-11-18T08:47:37;6.20;99.90
53294;DHT22;39181;53.440;5.644;2022-11-18T08:50:07;6.30;99.90
53294;DHT22;39181;53.440;5.644;2022-11-18T08:52:34;6.30;99.90
53294;DHT22;39181;53.440;5.644;2022-11-18T08:55:00;6.30;99.90
53294;DHT22;39181;53.440;5.644;2022-11-18T08:57:26;6.40;99.90
53294;DHT22;39181;53.440;5.644;2022-11-18T08:59:51;6.40;99.90
53294;DHT22;39181;53.440;5.644;2022-11-18T09:02:19;6.40;99.90
53294;DHT22;39181;53.440;5.644;2022-11-18T09:04:46;6.30;99.90
53294;DHT22;39181;53.440;5.644;2022-11-18T09:07:12;6.30;99.90
53294;DHT22;39181;53.440;5.644;2022-11-18T09:09:37;6.20;99.90
53294;DHT22;39181;53.440;5.644;2022-11-18T09:12:03;6.30;99.90
53294;DHT22;39181;53.440;5.644;2022-11-18T09:14:29;6.40;99.90
53294;DHT22;39181;53.440;5.644;2022-11-18T09:16:55;6.40;99.90
53294;DHT22;39181;53.440;5.644;2022-11-18T09:19:20;6.40;99.90
53294;DHT22;39181;53.440;5.644;2022-11-18T09:21:46;6.40;99.90
53294;DHT22;39181;53.440;5.644;2022-11-18T09:24:11;6.50;99.90
53294;DHT22;39181;53.440;5.644;2022-11-18T09:26:37;6.40;99.90
53294;DHT22;39181;53.440;5.644;2022-11-18T09:29:03;6.50;99.90
53294;DHT22;39181;53.440;5.644;2022-11-18T09:31:28;6.40;99.90
53294;DHT22;39181;53.440;5.644;2022-11-18T09:33:54;6.30;99.90
53294;DHT22;39181;53.440;5.644;2022-11-18T09:36:24;6.40;99.90
53294;DHT22;39181;53.440;5.644;2022-11-18T09:38:50;6.40;99.90
53294;DHT22;39181;53.440;5.644;2022-11-18T09:44:42;6.30;99.90
53294;DHT22;39181;53.440;5.644;2022-11-18T09:47:32;6.30;99.90
53294;DHT22;39181;53.440;5.644;2022-11-18T09:50:13;6.30;99.90
53294;DHT22;39181;53.440;5.644;2022-11-18T09:52:53;6.40;99.90
53294;DHT22;39181;53.440;5.644;2022-11-18T09:55:22;6.40;99.90
53294;DHT22;39181;53.440;5.644;2022-11-18T09:57:50;6.50;99.90
53294;DHT22;39181;53.440;5.644;2022-11-18T10:00:22;6.50;99.90
53294;DHT22;39181;53.440;5.644;2022-11-18T10:03:00;6.40;99.90
53294;DHT22;39181;53.440;5.644;2022-11-18T10:05:35;6.50;99.90
53294;DHT22;39181;53.440;5.644;2022-11-18T10:16:28;6.50;99.90
53294;DHT22;39181;53.440;5.644;2022-11-18T10:19:10;6.40;99.90
53294;DHT22;39181;53.440;5.644;2022-11-18T10:24:28;6.40;99.90
53294;DHT22;39181;53.440;5.644;2022-11-18T10:26:56;6.40;99.90
53294;DHT22;39181;53.440;5.644;2022-11-18T10:29:22;6.40;99.90
53294;DHT22;39181;53.440;5.644;2022-11-18T10:32:13;6.40;99.90
53294;DHT22;39181;53.440;5.644;2022-11-18T10:34:51;6.30;99.90
53294;DHT22;39181;53.440;5.644;2022-11-18T10:37:31;6.30;99.90
53294;DHT22;39181;53.440;5.644;2022-11-18T10:39:59;6.30;99.90
53294;DHT22;39181;53.440;5.644;2022-11-18T10:42:40;6.30;99.90
53294;DHT22;39181;53.440;5.644;2022-11-18T10:50:41;6.20;99.90
53294;DHT22;39181;53.440;5.644;2022-11-18T10:55:58;6.30;99.90
53294;DHT22;39181;53.440;5.644;2022-11-18T10:58:25;6.30;99.90
53294;DHT22;39181;53.440;5.644;2022-11-18T11:01:04;6.30;99.90
53294;DHT22;39181;53.440;5.644;2022-11-18T11:03:41;6.20;99.90
53294;DHT22;39181;53.440;5.644;2022-11-18T11:11:30;6.10;99.90
53294;DHT22;39181;53.440;5.644;2022-11-18T11:14:50;6.00;99.90
53294;DHT22;39181;53.440;5.644;2022-11-18T11:19:24;6.10;99.90
53294;DHT22;39181;53.440;5.644;2022-11-18T11:21:51;6.10;99.90
53294;DHT22;39181;53.440;5.644;2022-11-18T11:24:16;5.90;99.90
53294;DHT22;39181;53.440;5.644;2022-11-18T11:26:56;6.00;99.90
53294;DHT22;39181;53.440;5.644;2022-11-18T11:35:24;5.90;99.90
53294;DHT22;39181;53.440;5.644;2022-11-18T11:38:10;5.90;99.90
53294;DHT22;39181;53.440;5.644;2022-11-18T11:43:22;5.90;99.90
53294;DHT22;39181;53.440;5.644;2022-11-18T11:51:35;5.80;99.90
53294;DHT22;39181;53.440;5.644;2022-11-18T11:57:47;5.70;99.90
53294;DHT22;39181;53.440;5.644;2022-11-18T12:00:17;5.60;99.90
53294;DHT22;39181;53.440;5.644;2022-11-18T12:03:02;5.70;99.90
53294;DHT22;39181;53.440;5.644;2022-11-18T12:05:36;5.70;99.90
53294;DHT22;39181;53.440;5.644;2022-11-18T12:08:20;5.70;99.90
53294;DHT22;39181;53.440;5.644;2022-11-18T12:10:49;5.50;99.90
53294;DHT22;39181;53.440;5.644;2022-11-18T12:16:15;5.50;99.90
53294;DHT22;39181;53.440;5.644;2022-11-18T12:24:34;5.30;99.90
53294;DHT22;39181;53.440;5.644;2022-11-18T12:29:56;5.40;99.90
53294;DHT22;39181;53.440;5.644;2022-11-18T12:32:37;5.30;99.90
53294;DHT22;39181;53.440;5.644;2022-11-18T12:40:06;5.20;99.90
53294;DHT22;39181;53.440;5.644;2022-11-18T12:42:39;5.20;99.90
53294;DHT22;39181;53.440;5.644;2022-11-18T12:50:53;5.00;99.90
53294;DHT22;39181;53.440;5.644;2022-11-18T12:53:35;5.10;99.90
53294;DHT22;39181;53.440;5.644;2022-11-18T12:58:56;5.20;99.90
53294;DHT22;39181;53.440;5.644;2022-11-18T13:01:28;5.20;99.90
53294;DHT22;39181;53.440;5.644;2022-11-18T13:06:37;5.10;99.90
53294;DHT22;39181;53.440;5.644;2022-11-18T13:09:04;4.90;99.90
53294;DHT22;39181;53.440;5.644;2022-11-18T13:11:54;5.00;99.90
53294;DHT22;39181;53.440;5.644;2022-11-18T13:14:28;5.00;99.90
53294;DHT22;39181;53.440;5.644;2022-11-18T13:17:35;5.00;99.90
53294;DHT22;39181;53.440;5.644;2022-11-18T13:20:22;4.90;99.90
53294;DHT22;39181;53.440;5.644;2022-11-18T13:22:50;5.00;99.90
53294;DHT22;39181;53.440;5.644;2022-11-18T13:25:34;5.00;99.90
53294;DHT22;39181;53.440;5.644;2022-11-18T13:30:52;4.90;99.90
53294;DHT22;39181;53.440;5.644;2022-11-18T13:33:18;4.90;99.90
53294;DHT22;39181;53.440;5.644;2022-11-18T13:35:44;4.90;99.90
53294;DHT22;39181;53.440;5.644;2022-11-18T13:38:22;4.90;99.90
53294;DHT22;39181;53.440;5.644;2022-11-18T13:40:48;4.90;99.90
53294;DHT22;39181;53.440;5.644;2022-11-18T13:43:32;4.90;99.90
53294;DHT22;39181;53.440;5.644;2022-11-18T13:45:59;4.90;99.90
53294;DHT22;39181;53.440;5.644;2022-11-18T13:48:27;5.00;99.90
53294;DHT22;39181;53.440;5.644;2022-11-18T13:50:54;4.90;99.90
53294;DHT22;39181;53.440;5.644;2022-11-18T13:53:33;4.70;99.90
53294;DHT22;39181;53.440;5.644;2022-11-18T13:58:54;4.70;99.90
53294;DHT22;39181;53.440;5.644;2022-11-18T14:01:38;4.60;99.90
53294;DHT22;39181;53.440;5.644;2022-11-18T14:04:17;4.50;99.90
53294;DHT22;39181;53.440;5.644;2022-11-18T14:06:43;4.50;99.90
53294;DHT22;39181;53.440;5.644;2022-11-18T14:09:26;4.40;99.90
53294;DHT22;39181;53.440;5.644;2022-11-18T14:12:20;4.40;99.90
53294;DHT22;39181;53.440;5.644;2022-11-18T14:14:46;4.40;99.90
53294;DHT22;39181;53.440;5.644;2022-11-18T14:19:50;4.40;99.90
53294;DHT22;39181;53.440;5.644;2022-11-18T14:24:59;4.30;99.90
53294;DHT22;39181;53.440;5.644;2022-11-18T14:30:30;4.40;99.90
53294;DHT22;39181;53.440;5.644;2022-11-18T14:35:31;4.40;99.90
53294;DHT22;39181;53.440;5.644;2022-11-18T14:37:57;4.40;99.90
53294;DHT22;39181;53.440;5.644;2022-11-18T14:40:23;4.40;99.90
53294;DHT22;39181;53.440;5.644;2022-11-18T14:42:48;4.40;99.90
53294;DHT22;39181;53.440;5.644;2022-11-18T14:45:14;4.40;99.90
53294;DHT22;39181;53.440;5.644;2022-11-18T14:47:39;4.50;99.90
53294;DHT22;39181;53.440;5.644;2022-11-18T14:50:11;4.30;99.90
53294;DHT22;39181;53.440;5.644;2022-11-18T14:52:37;4.40;99.90
53294;DHT22;39181;53.440;5.644;2022-11-18T14:55:03;4.30;99.90
53294;DHT22;39181;53.440;5.644;2022-11-18T14:57:29;4.30;99.90
53294;DHT22;39181;53.440;5.644;2022-11-18T14:59:54;4.10;99.90
53294;DHT22;39181;53.440;5.644;2022-11-18T15:02:20;4.30;99.90
53294;DHT22;39181;53.440;5.644;2022-11-18T15:04:45;4.20;99.90
53294;DHT22;39181;53.440;5.644;2022-11-18T15:07:14;4.30;99.90
53294;DHT22;39181;53.440;5.644;2022-11-18T15:09:40;4.10;99.90
53294;DHT22;39181;53.440;5.644;2022-11-18T15:12:06;4.10;99.90
53294;DHT22;39181;53.440;5.644;2022-11-18T15:14:32;4.00;99.90
53294;DHT22;39181;53.440;5.644;2022-11-18T15:16:59;4.10;99.90
53294;DHT22;39181;53.440;5.644;2022-11-18T15:19:24;4.10;99.90
53294;DHT22;39181;53.440;5.644;2022-11-18T15:21:50;3.90;99.90
53294;DHT22;39181;53.440;5.644;2022-11-18T15:24:15;3.90;99.90
53294;DHT22;39181;53.440;5.644;2022-11-18T15:26:43;3.90;99.90
53294;DHT22;39181;53.440;5.644;2022-11-18T15:29:20;3.90;99.90
53294;DHT22;39181;53.440;5.644;2022-11-18T15:31:46;3.90;99.90
53294;DHT22;39181;53.440;5.644;2022-11-18T15:34:12;3.80;99.90
53294;DHT22;39181;53.440;5.644;2022-11-18T15:36:38;3.90;99.90
53294;DHT22;39181;53.440;5.644;2022-11-18T15:39:04;3.90;99.90
53294;DHT22;39181;53.440;5.644;2022-11-18T15:41:30;3.90;99.90
53294;DHT22;39181;53.440;5.644;2022-11-18T15:43:59;3.90;99.90
53294;DHT22;39181;53.440;5.644;2022-11-18T15:46:26;3.90;99.90
53294;DHT22;39181;53.440;5.644;2022-11-18T15:48:56;3.80;99.90
53294;DHT22;39181;53.440;5.644;2022-11-18T15:51:23;3.80;99.90
53294;DHT22;39181;53.440;5.644;2022-11-18T15:53:49;3.80;99.90
53294;DHT22;39181;53.440;5.644;2022-11-18T15:58:41;3.80;99.90
53294;DHT22;39181;53.440;5.644;2022-11-18T16:01:07;3.70;99.90
53294;DHT22;39181;53.440;5.644;2022-11-18T16:03:35;3.60;99.90
53294;DHT22;39181;53.440;5.644;2022-11-18T16:06:01;3.70;99.90
53294;DHT22;39181;53.440;5.644;2022-11-18T16:08:28;3.80;99.90
53294;DHT22;39181;53.440;5.644;2022-11-18T16:10:57;3.80;99.90
53294;DHT22;39181;53.440;5.644;2022-11-18T16:13:42;3.70;99.90
53294;DHT22;39181;53.440;5.644;2022-11-18T16:16:19;3.70;99.90
53294;DHT22;39181;53.440;5.644;2022-11-18T16:18:45;3.60;99.90
53294;DHT22;39181;53.440;5.644;2022-11-18T16:21:10;3.70;99.90
53294;DHT22;39181;53.440;5.644;2022-11-18T16:23:36;3.70;99.90
53294;DHT22;39181;53.440;5.644;2022-11-18T16:26:01;3.70;99.90
53294;DHT22;39181;53.440;5.644;2022-11-18T16:28:27;3.80;99.90
53294;DHT22;39181;53.440;5.644;2022-11-18T16:30:53;3.70;99.90
53294;DHT22;39181;53.440;5.644;2022-11-18T16:33:37;3.60;99.90
53294;DHT22;39181;53.440;5.644;2022-11-18T16:36:03;3.50;99.90
53294;DHT22;39181;53.440;5.644;2022-11-18T16:38:28;3.60;99.90
53294;DHT22;39181;53.440;5.644;2022-11-18T16:40:57;3.50;99.90
53294;DHT22;39181;53.440;5.644;2022-11-18T16:43:23;3.40;99.90
53294;DHT22;39181;53.440;5.644;2022-11-18T16:45:53;3.30;99.90
53294;DHT22;39181;53.440;5.644;2022-11-18T16:48:20;3.40;99.90
53294;DHT22;39181;53.440;5.644;2022-11-18T16:50:59;3.30;99.90
53294;DHT22;39181;53.440;5.644;2022-11-18T16:53:31;3.50;99.90
53294;DHT22;39181;53.440;5.644;2022-11-18T16:56:01;3.50;99.90
53294;DHT22;39181;53.440;5.644;2022-11-18T16:58:28;3.40;99.90
53294;DHT22;39181;53.440;5.644;2022-11-18T17:00:53;3.30;99.90
53294;DHT22;39181;53.440;5.644;2022-11-18T17:03:19;3.40;99.90
53294;DHT22;39181;53.440;5.644;2022-11-18T17:05:44;3.30;99.90
53294;DHT22;39181;53.440;5.644;2022-11-18T17:08:10;3.30;99.90
53294;DHT22;39181;53.440;5.644;2022-11-18T17:10:38;3.30;99.90
53294;DHT22;39181;53.440;5.644;2022-11-18T17:13:03;3.20;99.90
53294;DHT22;39181;53.440;5.644;2022-11-18T17:15:29;3.30;99.90
53294;DHT22;39181;53.440;5.644;2022-11-18T17:17:54;3.20;99.90
53294;DHT22;39181;53.440;5.644;2022-11-18T17:20:20;3.30;99.90
53294;DHT22;39181;53.440;5.644;2022-11-18T17:22:45;3.20;99.90
53294;DHT22;39181;53.440;5.644;2022-11-18T17:25:11;3.20;99.90
53294;DHT22;39181;53.440;5.644;2022-11-18T17:27:36;3.20;99.90
53294;DHT22;39181;53.440;5.644;2022-11-18T17:30:03;3.20;99.90
53294;DHT22;39181;53.440;5.644;2022-11-18T17:32:29;3.20;99.90
53294;DHT22;39181;53.440;5.644;2022-11-18T17:34:55;3.20;99.90
53294;DHT22;39181;53.440;5.644;2022-11-18T17:37:20;3.20;99.90
53294;DHT22;39181;53.440;5.644;2022-11-18T17:39:46;3.20;99.90
53294;DHT22;39181;53.440;5.644;2022-11-18T17:42:11;3.10;99.90
53294;DHT22;39181;53.440;5.644;2022-11-18T17:44:42;3.10;99.90
53294;DHT22;39181;53.440;5.644;2022-11-18T17:47:08;3.20;99.90
53294;DHT22;39181;53.440;5.644;2022-11-18T17:49:34;3.10;99.90
53294;DHT22;39181;53.440;5.644;2022-11-18T17:51:59;3.20;99.90
53294;DHT22;39181;53.440;5.644;2022-11-18T17:54:25;3.00;99.90
53294;DHT22;39181;53.440;5.644;2022-11-18T17:56:51;3.00;99.90
53294;DHT22;39181;53.440;5.644;2022-11-18T17:59:17;2.90;99.90
53294;DHT22;39181;53.440;5.644;2022-11-18T18:01:43;2.80;99.90